sensor_id;sensor_type;location;lat;lon;timestamp;P1;durP1;ratioP1;P2;durP2;ratioP2
35434;SDS011;21556;55.782;37.528;2022-12-11T00:01:15;12.97;;;9.20;;
35434;SDS011;21556;55.782;37.528;2022-12-11T00:03:46;16.40;;;9.10;;
35434;SDS011;21556;55.782;37.528;2022-12-11T00:06:16;19.23;;;10.47;;
35434;SDS011;21556;55.782;37.528;2022-12-11T00:08:46;19.43;;;9.60;;
35434;SDS011;21556;55.782;37.528;2022-12-11T00:11:16;13.67;;;9.80;;
35434;SDS011;21556;55.782;37.528;2022-12-11T00:13:42;15.93;;;10.93;;
35434;SDS011;21556;55.782;37.528;2022-12-11T00:16:08;15.70;;;9.50;;
35434;SDS011;21556;55.782;37.528;2022-12-11T00:18:35;16.23;;;9.70;;
35434;SDS011;21556;55.782;37.528;2022-12-11T00:21:02;14.10;;;9.47;;
35434;SDS011;21556;55.782;37.528;2022-12-11T00:23:29;16.87;;;10.20;;
35434;SDS011;21556;55.782;37.528;2022-12-11T00:25:58;16.70;;;10.93;;
35434;SDS011;21556;55.782;37.528;2022-12-11T00:28:23;15.82;;;10.05;;
35434;SDS011;21556;55.782;37.528;2022-12-11T00:30:49;16.70;;;10.00;;
35434;SDS011;21556;55.782;37.528;2022-12-11T00:33:18;17.20;;;10.10;;
35434;SDS011;21556;55.782;37.528;2022-12-11T00:38:14;15.13;;;9.47;;
35434;SDS011;21556;55.782;37.528;2022-12-11T00:40:42;11.70;;;8.67;;
35434;SDS011;21556;55.782;37.528;2022-12-11T00:43:08;15.53;;;9.63;;
35434;SDS011;21556;55.782;37.528;2022-12-11T00:45:39;20.10;;;11.23;;
35434;SDS011;21556;55.782;37.528;2022-12-11T00:48:07;12.47;;;9.43;;
35434;SDS011;21556;55.782;37.528;2022-12-11T00:50:34;16.67;;;9.40;;
35434;SDS011;21556;55.782;37.528;2022-12-11T00:53:03;15.33;;;9.50;;
35434;SDS011;21556;55.782;37.528;2022-12-11T00:55:30;18.90;;;10.40;;
35434;SDS011;21556;55.782;37.528;2022-12-11T00:57:58;17.87;;;10.53;;
35434;SDS011;21556;55.782;37.528;2022-12-11T01:00:27;18.77;;;11.50;;
35434;SDS011;21556;55.782;37.528;2022-12-11T01:02:53;16.07;;;9.90;;
35434;SDS011;21556;55.782;37.528;2022-12-11T01:05:18;19.13;;;10.27;;
35434;SDS011;21556;55.782;37.528;2022-12-11T01:07:49;16.27;;;9.67;;
35434;SDS011;21556;55.782;37.528;2022-12-11T01:10:15;15.37;;;9.90;;
35434;SDS011;21556;55.782;37.528;2022-12-11T01:12:54;20.70;;;11.03;;
35434;SDS011;21556;55.782;37.528;2022-12-11T01:15:30;18.93;;;10.87;;
35434;SDS011;21556;55.782;37.528;2022-12-11T01:18:04;16.05;;;10.77;;
35434;SDS011;21556;55.782;37.528;2022-12-11T01:20:31;18.37;;;10.50;;
35434;SDS011;21556;55.782;37.528;2022-12-11T01:23:00;15.87;;;10.20;;
35434;SDS011;21556;55.782;37.528;2022-12-11T01:25:27;17.30;;;10.43;;
35434;SDS011;21556;55.782;37.528;2022-12-11T01:27:53;17.90;;;10.60;;
35434;SDS011;21556;55.782;37.528;2022-12-11T01:30:21;17.73;;;11.33;;
35434;SDS011;21556;55.782;37.528;2022-12-11T01:32:48;23.85;;;11.90;;
35434;SDS011;21556;55.782;37.528;2022-12-11T01:35:15;19.07;;;10.80;;
35434;SDS011;21556;55.782;37.528;2022-12-11T01:37:41;20.40;;;11.83;;
35434;SDS011;21556;55.782;37.528;2022-12-11T01:40:07;21.53;;;12.10;;
35434;SDS011;21556;55.782;37.528;2022-12-11T01:42:36;24.60;;;11.23;;
35434;SDS011;21556;55.782;37.528;2022-12-11T01:47:49;18.60;;;11.47;;
35434;SDS011;21556;55.782;37.528;2022-12-11T01:50:18;23.60;;;11.70;;
35434;SDS011;21556;55.782;37.528;2022-12-11T01:52:45;21.10;;;11.53;;
35434;SDS011;21556;55.782;37.528;2022-12-11T01:55:13;20.47;;;10.97;;
35434;SDS011;21556;55.782;37.528;2022-12-11T01:57:42;21.73;;;11.73;;
35434;SDS011;21556;55.782;37.528;2022-12-11T02:00:11;18.67;;;10.87;;
35434;SDS011;21556;55.782;37.528;2022-12-11T02:02:42;20.40;;;12.07;;
35434;SDS011;21556;55.782;37.528;2022-12-11T02:05:09;23.93;;;11.60;;
35434;SDS011;21556;55.782;37.528;2022-12-11T02:07:46;21.33;;;11.97;;
35434;SDS011;21556;55.782;37.528;2022-12-11T02:10:15;19.50;;;10.70;;
35434;SDS011;21556;55.782;37.528;2022-12-11T02:20:32;16.57;;;9.40;;
35434;SDS011;21556;55.782;37.528;2022-12-11T02:26:30;18.93;;;10.30;;
35434;SDS011;21556;55.782;37.528;2022-12-11T02:29:10;20.37;;;10.33;;
35434;SDS011;21556;55.782;37.528;2022-12-11T02:31:44;17.27;;;9.53;;
35434;SDS011;21556;55.782;37.528;2022-12-11T02:34:19;19.20;;;9.73;;
35434;SDS011;21556;55.782;37.528;2022-12-11T02:36:56;15.40;;;8.50;;
35434;SDS011;21556;55.782;37.528;2022-12-11T02:39:26;16.43;;;9.73;;
35434;SDS011;21556;55.782;37.528;2022-12-11T02:41:53;17.37;;;9.63;;
35434;SDS011;21556;55.782;37.528;2022-12-11T02:44:25;14.27;;;8.77;;
35434;SDS011;21556;55.782;37.528;2022-12-11T02:46:54;16.03;;;8.53;;
35434;SDS011;21556;55.782;37.528;2022-12-11T02:49:20;14.50;;;8.60;;
35434;SDS011;21556;55.782;37.528;2022-12-11T02:51:47;15.63;;;9.60;;
35434;SDS011;21556;55.782;37.528;2022-12-11T02:54:16;19.35;;;9.68;;
35434;SDS011;21556;55.782;37.528;2022-12-11T02:56:54;15.70;;;8.93;;
35434;SDS011;21556;55.782;37.528;2022-12-11T02:59:38;18.47;;;9.07;;
35434;SDS011;21556;55.782;37.528;2022-12-11T03:02:06;18.47;;;8.77;;
35434;SDS011;21556;55.782;37.528;2022-12-11T03:04:33;19.03;;;10.90;;
35434;SDS011;21556;55.782;37.528;2022-12-11T03:07:14;23.63;;;10.00;;
35434;SDS011;21556;55.782;37.528;2022-12-11T03:09:45;21.13;;;10.18;;
35434;SDS011;21556;55.782;37.528;2022-12-11T03:12:19;19.85;;;10.27;;
35434;SDS011;21556;55.782;37.528;2022-12-11T03:14:57;22.73;;;10.30;;
35434;SDS011;21556;55.782;37.528;2022-12-11T03:17:37;16.25;;;10.68;;
35434;SDS011;21556;55.782;37.528;2022-12-11T03:22:56;12.88;;;6.93;;
35434;SDS011;21556;55.782;37.528;2022-12-11T03:25:33;20.07;;;10.40;;
35434;SDS011;21556;55.782;37.528;2022-12-11T03:28:39;18.33;;;9.40;;
35434;SDS011;21556;55.782;37.528;2022-12-11T03:31:27;16.27;;;9.30;;
35434;SDS011;21556;55.782;37.528;2022-12-11T03:33:57;17.03;;;9.67;;
35434;SDS011;21556;55.782;37.528;2022-12-11T03:36:31;17.87;;;9.60;;
35434;SDS011;21556;55.782;37.528;2022-12-11T03:39:08;19.90;;;10.63;;
35434;SDS011;21556;55.782;37.528;2022-12-11T03:41:43;19.63;;;10.07;;
35434;SDS011;21556;55.782;37.528;2022-12-11T03:44:11;26.07;;;10.20;;
35434;SDS011;21556;55.782;37.528;2022-12-11T03:46:40;18.83;;;9.47;;
35434;SDS011;21556;55.782;37.528;2022-12-11T03:49:11;22.70;;;9.90;;
35434;SDS011;21556;55.782;37.528;2022-12-11T03:51:42;19.03;;;10.50;;
35434;SDS011;21556;55.782;37.528;2022-12-11T03:54:10;17.08;;;8.98;;
35434;SDS011;21556;55.782;37.528;2022-12-11T03:56:36;18.80;;;10.03;;
35434;SDS011;21556;55.782;37.528;2022-12-11T03:59:04;20.45;;;10.80;;
35434;SDS011;21556;55.782;37.528;2022-12-11T04:01:30;16.93;;;9.60;;
35434;SDS011;21556;55.782;37.528;2022-12-11T04:03:58;18.27;;;9.57;;
35434;SDS011;21556;55.782;37.528;2022-12-11T04:06:24;19.87;;;9.43;;
35434;SDS011;21556;55.782;37.528;2022-12-11T04:08:50;17.63;;;8.70;;
35434;SDS011;21556;55.782;37.528;2022-12-11T04:11:16;14.80;;;8.97;;
35434;SDS011;21556;55.782;37.528;2022-12-11T04:14:03;21.87;;;10.63;;
35434;SDS011;21556;55.782;37.528;2022-12-11T04:17:12;20.40;;;8.90;;
35434;SDS011;21556;55.782;37.528;2022-12-11T04:19:58;16.20;;;9.70;;
35434;SDS011;21556;55.782;37.528;2022-12-11T04:22:42;18.23;;;10.13;;
35434;SDS011;21556;55.782;37.528;2022-12-11T04:25:29;21.40;;;10.03;;
35434;SDS011;21556;55.782;37.528;2022-12-11T04:27:55;19.43;;;10.30;;
35434;SDS011;21556;55.782;37.528;2022-12-11T04:30:22;17.67;;;9.63;;
35434;SDS011;21556;55.782;37.528;2022-12-11T04:32:49;19.13;;;9.45;;
35434;SDS011;21556;55.782;37.528;2022-12-11T04:35:16;19.97;;;10.57;;
35434;SDS011;21556;55.782;37.528;2022-12-11T04:37:42;19.63;;;9.80;;
35434;SDS011;21556;55.782;37.528;2022-12-11T04:40:10;23.30;;;10.67;;
35434;SDS011;21556;55.782;37.528;2022-12-11T04:42:38;18.40;;;10.50;;
35434;SDS011;21556;55.782;37.528;2022-12-11T04:45:04;22.03;;;11.83;;
35434;SDS011;21556;55.782;37.528;2022-12-11T04:47:35;23.13;;;12.68;;
35434;SDS011;21556;55.782;37.528;2022-12-11T04:50:03;18.23;;;10.63;;
35434;SDS011;21556;55.782;37.528;2022-12-11T04:52:31;23.55;;;10.25;;
35434;SDS011;21556;55.782;37.528;2022-12-11T04:54:57;15.77;;;9.83;;
35434;SDS011;21556;55.782;37.528;2022-12-11T04:57:25;19.65;;;9.63;;
35434;SDS011;21556;55.782;37.528;2022-12-11T04:59:51;18.87;;;9.80;;
35434;SDS011;21556;55.782;37.528;2022-12-11T05:02:16;18.30;;;10.13;;
35434;SDS011;21556;55.782;37.528;2022-12-11T05:04:42;18.67;;;9.60;;
35434;SDS011;21556;55.782;37.528;2022-12-11T05:07:10;18.75;;;10.52;;
35434;SDS011;21556;55.782;37.528;2022-12-11T05:09:36;20.03;;;9.63;;
35434;SDS011;21556;55.782;37.528;2022-12-11T05:12:02;18.70;;;10.13;;
35434;SDS011;21556;55.782;37.528;2022-12-11T05:14:28;21.23;;;10.00;;
35434;SDS011;21556;55.782;37.528;2022-12-11T05:16:56;13.13;;;7.10;;
35434;SDS011;21556;55.782;37.528;2022-12-11T05:19:25;20.43;;;10.57;;
35434;SDS011;21556;55.782;37.528;2022-12-11T05:21:52;20.60;;;11.10;;
35434;SDS011;21556;55.782;37.528;2022-12-11T05:24:18;16.77;;;10.23;;
35434;SDS011;21556;55.782;37.528;2022-12-11T05:26:43;19.30;;;9.93;;
35434;SDS011;21556;55.782;37.528;2022-12-11T05:29:12;21.87;;;10.23;;
35434;SDS011;21556;55.782;37.528;2022-12-11T05:31:38;25.13;;;11.60;;
35434;SDS011;21556;55.782;37.528;2022-12-11T05:34:04;20.97;;;10.53;;
35434;SDS011;21556;55.782;37.528;2022-12-11T05:36:31;22.80;;;11.13;;
35434;SDS011;21556;55.782;37.528;2022-12-11T05:38:59;22.55;;;10.95;;
35434;SDS011;21556;55.782;37.528;2022-12-11T05:41:28;18.13;;;10.67;;
35434;SDS011;21556;55.782;37.528;2022-12-11T05:43:55;25.77;;;11.70;;
35434;SDS011;21556;55.782;37.528;2022-12-11T05:46:24;18.40;;;10.95;;
35434;SDS011;21556;55.782;37.528;2022-12-11T05:48:54;17.37;;;10.70;;
35434;SDS011;21556;55.782;37.528;2022-12-11T05:51:25;18.53;;;9.53;;
35434;SDS011;21556;55.782;37.528;2022-12-11T05:53:52;17.17;;;10.90;;
35434;SDS011;21556;55.782;37.528;2022-12-11T05:56:26;22.83;;;11.33;;
35434;SDS011;21556;55.782;37.528;2022-12-11T05:58:54;20.60;;;10.50;;
35434;SDS011;21556;55.782;37.528;2022-12-11T06:01:22;19.43;;;11.33;;
35434;SDS011;21556;55.782;37.528;2022-12-11T06:03:59;16.05;;;8.55;;
35434;SDS011;21556;55.782;37.528;2022-12-11T06:06:26;21.43;;;10.93;;
35434;SDS011;21556;55.782;37.528;2022-12-11T06:08:53;16.83;;;9.93;;
35434;SDS011;21556;55.782;37.528;2022-12-11T06:11:20;20.67;;;10.80;;
35434;SDS011;21556;55.782;37.528;2022-12-11T06:13:47;20.47;;;11.13;;
35434;SDS011;21556;55.782;37.528;2022-12-11T06:16:16;22.43;;;11.87;;
35434;SDS011;21556;55.782;37.528;2022-12-11T06:18:43;21.83;;;11.00;;
35434;SDS011;21556;55.782;37.528;2022-12-11T06:21:17;18.37;;;9.07;;
35434;SDS011;21556;55.782;37.528;2022-12-11T06:23:48;19.63;;;9.88;;
35434;SDS011;21556;55.782;37.528;2022-12-11T06:26:15;20.08;;;9.27;;
35434;SDS011;21556;55.782;37.528;2022-12-11T06:28:42;25.50;;;12.50;;
35434;SDS011;21556;55.782;37.528;2022-12-11T06:31:08;23.97;;;12.07;;
35434;SDS011;21556;55.782;37.528;2022-12-11T06:33:36;23.25;;;11.85;;
35434;SDS011;21556;55.782;37.528;2022-12-11T06:36:12;26.03;;;12.37;;
35434;SDS011;21556;55.782;37.528;2022-12-11T06:38:42;24.13;;;12.07;;
35434;SDS011;21556;55.782;37.528;2022-12-11T06:41:09;22.77;;;11.30;;
35434;SDS011;21556;55.782;37.528;2022-12-11T06:43:36;25.63;;;12.13;;
35434;SDS011;21556;55.782;37.528;2022-12-11T06:46:04;22.00;;;11.75;;
35434;SDS011;21556;55.782;37.528;2022-12-11T06:48:31;16.10;;;8.90;;
35434;SDS011;21556;55.782;37.528;2022-12-11T06:50:58;28.37;;;11.80;;
35434;SDS011;21556;55.782;37.528;2022-12-11T06:53:27;26.30;;;13.60;;
35434;SDS011;21556;55.782;37.528;2022-12-11T06:55:53;24.23;;;12.20;;
35434;SDS011;21556;55.782;37.528;2022-12-11T06:58:18;25.30;;;12.90;;
35434;SDS011;21556;55.782;37.528;2022-12-11T07:03:12;22.37;;;11.97;;
35434;SDS011;21556;55.782;37.528;2022-12-11T07:08:07;28.17;;;13.57;;
35434;SDS011;21556;55.782;37.528;2022-12-11T07:10:35;24.38;;;12.80;;
35434;SDS011;21556;55.782;37.528;2022-12-11T07:13:07;23.77;;;13.17;;
35434;SDS011;21556;55.782;37.528;2022-12-11T07:15:36;23.67;;;12.20;;
35434;SDS011;21556;55.782;37.528;2022-12-11T07:18:02;22.90;;;13.27;;
35434;SDS011;21556;55.782;37.528;2022-12-11T07:20:28;22.10;;;12.23;;
35434;SDS011;21556;55.782;37.528;2022-12-11T07:22:54;21.53;;;12.10;;
35434;SDS011;21556;55.782;37.528;2022-12-11T07:25:20;22.97;;;12.67;;
35434;SDS011;21556;55.782;37.528;2022-12-11T07:27:46;21.17;;;12.77;;
35434;SDS011;21556;55.782;37.528;2022-12-11T07:30:12;22.27;;;12.73;;
35434;SDS011;21556;55.782;37.528;2022-12-11T07:32:38;24.70;;;12.63;;
35434;SDS011;21556;55.782;37.528;2022-12-11T07:35:04;22.17;;;12.93;;
35434;SDS011;21556;55.782;37.528;2022-12-11T07:37:31;22.40;;;11.93;;
35434;SDS011;21556;55.782;37.528;2022-12-11T07:40:06;26.17;;;13.00;;
35434;SDS011;21556;55.782;37.528;2022-12-11T08:02:10;20.47;;;12.70;;
35434;SDS011;21556;55.782;37.528;2022-12-11T08:04:39;22.47;;;12.67;;
35434;SDS011;21556;55.782;37.528;2022-12-11T08:07:17;29.37;;;13.60;;
35434;SDS011;21556;55.782;37.528;2022-12-11T09:02:52;22.33;;;13.90;;
35434;SDS011;21556;55.782;37.528;2022-12-11T09:06:08;21.30;;;14.03;;
35434;SDS011;21556;55.782;37.528;2022-12-11T09:14:46;20.63;;;13.70;;
35434;SDS011;21556;55.782;37.528;2022-12-11T09:17:20;26.07;;;13.47;;
35434;SDS011;21556;55.782;37.528;2022-12-11T09:19:48;20.95;;;14.85;;
35434;SDS011;21556;55.782;37.528;2022-12-11T09:22:14;27.70;;;14.47;;
35434;SDS011;21556;55.782;37.528;2022-12-11T09:24:40;21.57;;;13.53;;
35434;SDS011;21556;55.782;37.528;2022-12-11T09:27:06;20.47;;;14.03;;
35434;SDS011;21556;55.782;37.528;2022-12-11T09:29:32;20.07;;;14.97;;
35434;SDS011;21556;55.782;37.528;2022-12-11T09:31:59;22.03;;;15.53;;
35434;SDS011;21556;55.782;37.528;2022-12-11T09:34:30;27.50;;;15.47;;
35434;SDS011;21556;55.782;37.528;2022-12-11T09:36:57;22.07;;;14.43;;
35434;SDS011;21556;55.782;37.528;2022-12-11T09:39:23;21.47;;;15.03;;
35434;SDS011;21556;55.782;37.528;2022-12-11T09:44:51;20.87;;;14.03;;
35434;SDS011;21556;55.782;37.528;2022-12-11T09:52:39;22.80;;;13.70;;
35434;SDS011;21556;55.782;37.528;2022-12-11T09:55:20;22.50;;;15.00;;
35434;SDS011;21556;55.782;37.528;2022-12-11T10:06:20;22.17;;;14.00;;
35434;SDS011;21556;55.782;37.528;2022-12-11T10:14:09;22.47;;;15.10;;
35434;SDS011;21556;55.782;37.528;2022-12-11T10:16:46;24.87;;;14.97;;
35434;SDS011;21556;55.782;37.528;2022-12-11T10:19:20;19.30;;;14.87;;
35434;SDS011;21556;55.782;37.528;2022-12-11T10:21:50;25.77;;;16.40;;
35434;SDS011;21556;55.782;37.528;2022-12-11T10:24:19;25.40;;;15.53;;
35434;SDS011;21556;55.782;37.528;2022-12-11T10:27:27;22.85;;;15.30;;
35434;SDS011;21556;55.782;37.528;2022-12-11T10:30:06;20.47;;;14.73;;
35434;SDS011;21556;55.782;37.528;2022-12-11T10:32:41;23.27;;;14.93;;
35434;SDS011;21556;55.782;37.528;2022-12-11T10:35:43;23.30;;;14.50;;
35434;SDS011;21556;55.782;37.528;2022-12-11T10:38:32;19.80;;;14.03;;
35434;SDS011;21556;55.782;37.528;2022-12-11T10:43:45;21.10;;;13.60;;
35434;SDS011;21556;55.782;37.528;2022-12-11T10:46:17;21.70;;;15.03;;
35434;SDS011;21556;55.782;37.528;2022-12-11T10:48:50;22.33;;;14.50;;
35434;SDS011;21556;55.782;37.528;2022-12-11T10:51:19;18.03;;;13.73;;
35434;SDS011;21556;55.782;37.528;2022-12-11T10:53:50;21.37;;;14.67;;
35434;SDS011;21556;55.782;37.528;2022-12-11T10:56:28;23.67;;;14.80;;
35434;SDS011;21556;55.782;37.528;2022-12-11T10:58:56;22.45;;;14.25;;
35434;SDS011;21556;55.782;37.528;2022-12-11T11:01:24;17.63;;;14.05;;
35434;SDS011;21556;55.782;37.528;2022-12-11T11:15:35;20.50;;;13.53;;
35434;SDS011;21556;55.782;37.528;2022-12-11T11:23:17;18.00;;;12.57;;
35434;SDS011;21556;55.782;37.528;2022-12-11T11:26:18;19.30;;;13.98;;
35434;SDS011;21556;55.782;37.528;2022-12-11T11:28:41;19.27;;;13.73;;
35434;SDS011;21556;55.782;37.528;2022-12-11T11:36:24;19.27;;;12.30;;
35434;SDS011;21556;55.782;37.528;2022-12-11T11:39:05;18.33;;;12.50;;
35434;SDS011;21556;55.782;37.528;2022-12-11T11:51:49;17.20;;;11.57;;
35434;SDS011;21556;55.782;37.528;2022-12-11T11:54:38;17.23;;;11.93;;
35434;SDS011;21556;55.782;37.528;2022-12-11T11:57:41;18.17;;;11.23;;
35434;SDS011;21556;55.782;37.528;2022-12-11T12:00:55;18.70;;;11.73;;
35434;SDS011;21556;55.782;37.528;2022-12-11T12:03:24;20.20;;;11.83;;
35434;SDS011;21556;55.782;37.528;2022-12-11T12:06:07;19.97;;;11.93;;
35434;SDS011;21556;55.782;37.528;2022-12-11T12:11:59;18.83;;;10.50;;
35434;SDS011;21556;55.782;37.528;2022-12-11T12:26:20;16.47;;;10.63;;
35434;SDS011;21556;55.782;37.528;2022-12-11T12:34:44;17.43;;;10.87;;
35434;SDS011;21556;55.782;37.528;2022-12-11T12:37:58;16.43;;;11.13;;
35434;SDS011;21556;55.782;37.528;2022-12-11T12:40:52;16.73;;;9.33;;
35434;SDS011;21556;55.782;37.528;2022-12-11T12:43:57;13.43;;;9.10;;
35434;SDS011;21556;55.782;37.528;2022-12-11T12:46:42;15.27;;;8.57;;
35434;SDS011;21556;55.782;37.528;2022-12-11T12:49:47;12.77;;;9.80;;
35434;SDS011;21556;55.782;37.528;2022-12-11T12:52:16;13.63;;;8.97;;
35434;SDS011;21556;55.782;37.528;2022-12-11T12:54:45;13.33;;;9.10;;
35434;SDS011;21556;55.782;37.528;2022-12-11T12:57:33;12.50;;;8.20;;
35434;SDS011;21556;55.782;37.528;2022-12-11T13:00:03;12.67;;;7.80;;
35434;SDS011;21556;55.782;37.528;2022-12-11T13:02:46;10.67;;;7.83;;
35434;SDS011;21556;55.782;37.528;2022-12-11T13:05:25;10.90;;;7.43;;
35434;SDS011;21556;55.782;37.528;2022-12-11T13:07:54;11.75;;;7.57;;
35434;SDS011;21556;55.782;37.528;2022-12-11T13:12:58;9.57;;;7.00;;
35434;SDS011;21556;55.782;37.528;2022-12-11T13:20:57;9.80;;;6.03;;
35434;SDS011;21556;55.782;37.528;2022-12-11T13:23:30;10.17;;;6.27;;
35434;SDS011;21556;55.782;37.528;2022-12-11T13:25:59;8.87;;;6.30;;
35434;SDS011;21556;55.782;37.528;2022-12-11T13:28:29;9.50;;;6.40;;
35434;SDS011;21556;55.782;37.528;2022-12-11T13:33:26;10.43;;;7.00;;
35434;SDS011;21556;55.782;37.528;2022-12-11T13:36:28;9.90;;;6.95;;
35434;SDS011;21556;55.782;37.528;2022-12-11T13:39:05;8.97;;;6.17;;
35434;SDS011;21556;55.782;37.528;2022-12-11T13:41:49;8.37;;;6.30;;
35434;SDS011;21556;55.782;37.528;2022-12-11T13:44:28;9.97;;;7.10;;
35434;SDS011;21556;55.782;37.528;2022-12-11T13:46:57;7.33;;;5.53;;
35434;SDS011;21556;55.782;37.528;2022-12-11T13:49:31;12.53;;;6.70;;
35434;SDS011;21556;55.782;37.528;2022-12-11T13:51:59;8.50;;;5.63;;
35434;SDS011;21556;55.782;37.528;2022-12-11T13:54:27;8.33;;;5.90;;
35434;SDS011;21556;55.782;37.528;2022-12-11T13:59:33;8.03;;;6.53;;
35434;SDS011;21556;55.782;37.528;2022-12-11T14:02:23;8.73;;;5.70;;
35434;SDS011;21556;55.782;37.528;2022-12-11T14:04:57;10.23;;;7.10;;
35434;SDS011;21556;55.782;37.528;2022-12-11T14:07:32;10.23;;;7.10;;
35434;SDS011;21556;55.782;37.528;2022-12-11T14:15:57;9.33;;;6.57;;
35434;SDS011;21556;55.782;37.528;2022-12-11T14:18:37;10.93;;;6.47;;
35434;SDS011;21556;55.782;37.528;2022-12-11T14:21:06;8.57;;;6.07;;
35434;SDS011;21556;55.782;37.528;2022-12-11T14:23:53;10.77;;;6.07;;
35434;SDS011;21556;55.782;37.528;2022-12-11T14:26:27;8.10;;;5.93;;
35434;SDS011;21556;55.782;37.528;2022-12-11T14:28:55;8.53;;;6.03;;
35434;SDS011;21556;55.782;37.528;2022-12-11T14:31:33;8.37;;;5.93;;
35434;SDS011;21556;55.782;37.528;2022-12-11T14:36:43;9.70;;;5.33;;
35434;SDS011;21556;55.782;37.528;2022-12-11T14:39:19;7.75;;;6.25;;
35434;SDS011;21556;55.782;37.528;2022-12-11T14:51:38;7.27;;;5.53;;
35434;SDS011;21556;55.782;37.528;2022-12-11T14:54:13;6.53;;;5.37;;
35434;SDS011;21556;55.782;37.528;2022-12-11T14:57:05;9.17;;;6.60;;
35434;SDS011;21556;55.782;37.528;2022-12-11T14:59:37;12.77;;;6.78;;
35434;SDS011;21556;55.782;37.528;2022-12-11T15:02:36;10.13;;;6.23;;
35434;SDS011;21556;55.782;37.528;2022-12-11T15:05:10;11.23;;;7.43;;
35434;SDS011;21556;55.782;37.528;2022-12-11T15:08:00;9.33;;;6.23;;
35434;SDS011;21556;55.782;37.528;2022-12-11T15:10:28;10.50;;;6.80;;
35434;SDS011;21556;55.782;37.528;2022-12-11T15:13:03;11.37;;;7.67;;
35434;SDS011;21556;55.782;37.528;2022-12-11T15:15:32;11.33;;;7.20;;
35434;SDS011;21556;55.782;37.528;2022-12-11T15:18:11;10.27;;;5.70;;
35434;SDS011;21556;55.782;37.528;2022-12-11T15:21:03;9.43;;;6.87;;
35434;SDS011;21556;55.782;37.528;2022-12-11T15:23:31;10.07;;;5.03;;
35434;SDS011;21556;55.782;37.528;2022-12-11T15:26:07;10.07;;;6.53;;
35434;SDS011;21556;55.782;37.528;2022-12-11T15:28:34;14.50;;;7.97;;
35434;SDS011;21556;55.782;37.528;2022-12-11T15:31:02;8.73;;;6.07;;
35434;SDS011;21556;55.782;37.528;2022-12-11T15:33:43;10.00;;;6.83;;
35434;SDS011;21556;55.782;37.528;2022-12-11T15:39:11;9.23;;;6.70;;
35434;SDS011;21556;55.782;37.528;2022-12-11T15:44:08;12.20;;;7.10;;
35434;SDS011;21556;55.782;37.528;2022-12-11T15:46:53;11.70;;;6.27;;
35434;SDS011;21556;55.782;37.528;2022-12-11T15:49:19;7.97;;;4.87;;
35434;SDS011;21556;55.782;37.528;2022-12-11T15:51:48;9.47;;;5.93;;
35434;SDS011;21556;55.782;37.528;2022-12-11T15:54:18;5.73;;;4.30;;
35434;SDS011;21556;55.782;37.528;2022-12-11T15:56:47;7.57;;;5.77;;
35434;SDS011;21556;55.782;37.528;2022-12-11T15:59:13;10.20;;;6.53;;
35434;SDS011;21556;55.782;37.528;2022-12-11T16:01:46;9.50;;;5.83;;
35434;SDS011;21556;55.782;37.528;2022-12-11T16:35:47;9.93;;;6.10;;
35434;SDS011;21556;55.782;37.528;2022-12-11T16:57:31;9.77;;;5.47;;
35434;SDS011;21556;55.782;37.528;2022-12-11T17:03:44;7.10;;;5.23;;
35434;SDS011;21556;55.782;37.528;2022-12-11T17:42:50;6.73;;;4.43;;
35434;SDS011;21556;55.782;37.528;2022-12-11T17:46:01;9.60;;;4.23;;
35434;SDS011;21556;55.782;37.528;2022-12-11T17:49:00;6.50;;;4.87;;
35434;SDS011;21556;55.782;37.528;2022-12-11T17:56:23;7.90;;;4.43;;
35434;SDS011;21556;55.782;37.528;2022-12-11T18:07:51;5.30;;;3.87;;
35434;SDS011;21556;55.782;37.528;2022-12-11T18:10:36;7.37;;;4.60;;
35434;SDS011;21556;55.782;37.528;2022-12-11T18:13:08;5.77;;;4.47;;
35434;SDS011;21556;55.782;37.528;2022-12-11T18:15:43;7.50;;;4.57;;
35434;SDS011;21556;55.782;37.528;2022-12-11T18:18:50;6.13;;;4.17;;
35434;SDS011;21556;55.782;37.528;2022-12-11T18:25:02;5.17;;;3.50;;
35434;SDS011;21556;55.782;37.528;2022-12-11T18:27:42;5.00;;;3.03;;
35434;SDS011;21556;55.782;37.528;2022-12-11T18:31:02;4.30;;;3.43;;
35434;SDS011;21556;55.782;37.528;2022-12-11T18:34:27;4.32;;;2.75;;
35434;SDS011;21556;55.782;37.528;2022-12-11T18:42:36;4.33;;;2.87;;
35434;SDS011;21556;55.782;37.528;2022-12-11T18:53:19;4.67;;;2.90;;
35434;SDS011;21556;55.782;37.528;2022-12-11T18:56:44;4.10;;;3.00;;
35434;SDS011;21556;55.782;37.528;2022-12-11T19:10:49;4.50;;;2.07;;
35434;SDS011;21556;55.782;37.528;2022-12-11T19:13:17;5.57;;;2.42;;
35434;SDS011;21556;55.782;37.528;2022-12-11T19:15:43;3.30;;;2.17;;
35434;SDS011;21556;55.782;37.528;2022-12-11T19:18:09;3.47;;;2.50;;
35434;SDS011;21556;55.782;37.528;2022-12-11T19:20:44;4.83;;;3.03;;
35434;SDS011;21556;55.782;37.528;2022-12-11T19:23:16;3.93;;;2.57;;
35434;SDS011;21556;55.782;37.528;2022-12-11T19:25:43;4.17;;;2.30;;
35434;SDS011;21556;55.782;37.528;2022-12-11T19:28:19;4.00;;;2.23;;
35434;SDS011;21556;55.782;37.528;2022-12-11T19:30:46;3.97;;;2.70;;
35434;SDS011;21556;55.782;37.528;2022-12-11T19:33:18;3.63;;;2.70;;
35434;SDS011;21556;55.782;37.528;2022-12-11T19:35:44;3.40;;;2.40;;
35434;SDS011;21556;55.782;37.528;2022-12-11T19:38:10;5.20;;;2.40;;
35434;SDS011;21556;55.782;37.528;2022-12-11T19:40:39;4.83;;;2.30;;
35434;SDS011;21556;55.782;37.528;2022-12-11T19:45:40;2.80;;;2.00;;
35434;SDS011;21556;55.782;37.528;2022-12-11T19:48:05;3.30;;;2.00;;
35434;SDS011;21556;55.782;37.528;2022-12-11T19:50:33;4.60;;;2.27;;
35434;SDS011;21556;55.782;37.528;2022-12-11T19:53:02;3.20;;;2.13;;
35434;SDS011;21556;55.782;37.528;2022-12-11T19:55:28;2.90;;;2.40;;
35434;SDS011;21556;55.782;37.528;2022-12-11T19:57:54;3.57;;;2.50;;
35434;SDS011;21556;55.782;37.528;2022-12-11T20:00:23;4.50;;;2.20;;
35434;SDS011;21556;55.782;37.528;2022-12-11T20:02:49;4.07;;;2.40;;
35434;SDS011;21556;55.782;37.528;2022-12-11T20:05:16;3.23;;;2.80;;
35434;SDS011;21556;55.782;37.528;2022-12-11T20:07:42;5.13;;;2.37;;
35434;SDS011;21556;55.782;37.528;2022-12-11T20:10:14;3.50;;;2.03;;
35434;SDS011;21556;55.782;37.528;2022-12-11T20:15:21;3.87;;;2.60;;
35434;SDS011;21556;55.782;37.528;2022-12-11T20:17:54;4.37;;;2.73;;
35434;SDS011;21556;55.782;37.528;2022-12-11T20:20:22;5.82;;;2.65;;
35434;SDS011;21556;55.782;37.528;2022-12-11T20:22:57;5.43;;;3.10;;
35434;SDS011;21556;55.782;37.528;2022-12-11T20:25:28;3.47;;;2.73;;
35434;SDS011;21556;55.782;37.528;2022-12-11T20:27:55;4.03;;;3.27;;
35434;SDS011;21556;55.782;37.528;2022-12-11T20:30:22;4.30;;;3.20;;
35434;SDS011;21556;55.782;37.528;2022-12-11T20:32:49;3.00;;;2.70;;
35434;SDS011;21556;55.782;37.528;2022-12-11T20:38:08;4.93;;;3.90;;
35434;SDS011;21556;55.782;37.528;2022-12-11T20:40:34;5.10;;;2.83;;
35434;SDS011;21556;55.782;37.528;2022-12-11T20:43:00;4.67;;;3.73;;
35434;SDS011;21556;55.782;37.528;2022-12-11T20:45:26;4.37;;;3.73;;
35434;SDS011;21556;55.782;37.528;2022-12-11T20:47:52;5.20;;;4.03;;
35434;SDS011;21556;55.782;37.528;2022-12-11T20:50:18;7.73;;;4.90;;